Time;durP1;ratioP1;P1;durP2;ratioP2;P2;SDS_P1;SDS_P2;PMS_P1;PMS_P2;Temp;Humidity;BMP_temperature;BMP_pressure;BME280_temperature;BME280_humidity;BME280_pressure;Samples;Min_cycle;Max_cycle;Signal;HPM_P1;HPM_P2
2022/03/23 00:02:46;;;;;;;;;;;4.60;82.50;;;;;;2603364;54;19989;31
2022/03/23 00:12:20;;;;;;;;;;;4.40;84.10;;;;;;2603131;54;19941;31
2022/03/23 00:15:35;;;;;;;;;;;;;;;;;;;;;
2022/03/23 00:21:14;;;;;;;;;;;4.20;84.50;;;;;;2621797;46;19941;31
2022/03/23 00:24:06;;;;;;;;;;;4.10;84.60;;;;;;2782591;31;20496;31
2022/03/23 00:26:45;;;;;;;;;;;4.10;85.00;;;;;;2603290;54;20791;31
2022/03/23 00:32:41;;;;;;;;;;;3.90;84.80;;;;;;2701993;39;20444;31
2022/03/23 00:38:16;;;;;;;;;;;3.80;86.10;;;;;;2603247;46;19936;31
2022/03/23 00:41:03;;;;;;;;;;;3.80;86.50;;;;;;2620693;46;19931;31
2022/03/23 00:47:02;;;;;;;;;;;3.60;87.60;;;;;;2603126;54;19941;31
2022/03/23 00:52:25;;;;;;;;;;;3.40;89.00;;;;;;2603252;54;19935;31
2022/03/23 00:58:35;;;;;;;;;;;3.40;88.60;;;;;;2603208;54;20767;31
2022/03/23 01:01:14;;;;;;;;;;;3.40;89.00;;;;;;2621515;46;19961;31
2022/03/23 01:04:01;;;;;;;;;;;3.30;89.50;;;;;;2607228;46;19969;31
2022/03/23 01:06:36;;;;;;;;;;;3.30;90.80;;;;;;2602530;54;20788;31
2022/03/23 01:14:59;;;;;;;;;;;3.10;91.10;;;;;;2603322;54;19960;31
2022/03/23 01:20:54;;;;;;;;;;;3.10;92.30;;;;;;2603353;54;20722;31
2022/03/23 01:23:33;;;;;;;;;;;3.00;91.60;;;;;;2621514;46;19942;31
2022/03/23 01:26:09;;;;;;;;;;;3.10;92.30;;;;;;2603282;54;20717;31
2022/03/23 01:28:45;;;;;;;;;;;3.00;92.40;;;;;;2621777;46;20811;31
2022/03/23 01:34:28;;;;;;;;;;;3.00;92.10;;;;;;2602972;54;19934;31
2022/03/23 01:37:09;;;;;;;;;;;2.90;92.60;;;;;;2603340;54;20752;31
2022/03/23 01:39:49;;;;;;;;;;;2.90;92.60;;;;;;2603187;54;20673;31
2022/03/23 01:42:39;;;;;;;;;;;2.80;92.90;;;;;;2602691;54;19946;31
2022/03/23 01:45:32;;;;;;;;;;;3.00;93.60;;;;;;2617268;46;20639;31
2022/03/23 01:51:10;;;;;;;;;;;2.80;93.30;;;;;;2619096;46;20851;31
2022/03/23 01:56:44;;;;;;;;;;;2.70;93.40;;;;;;2603092;54;19934;31
2022/03/23 01:59:18;;;;;;;;;;;2.70;94.00;;;;;;2607568;46;19939;31
2022/03/23 02:01:56;;;;;;;;;;;2.70;94.90;;;;;;2700637;39;20432;31
2022/03/23 02:05:00;;;;;;;;;;;2.60;95.40;;;;;;2602951;54;20796;31
2022/03/23 02:07:55;;;;;;;;;;;2.50;96.60;;;;;;2602800;54;19942;31
2022/03/23 02:10:34;;;;;;;;;;;2.40;96.70;;;;;;2603141;54;19934;31
2022/03/23 02:20:21;;;;;;;;;;;;;;;;;;;;;
2022/03/23 03:21:00;;;;;;;;;;;1.40;99.90;;;;;;2601798;54;20732;31
2022/03/23 03:23:49;;;;;;;;;;;1.40;99.90;;;;;;2602244;54;19950;31
2022/03/23 03:26:30;;;;;;;;;;;1.30;99.90;;;;;;2618625;46;20741;31
2022/03/23 03:29:04;;;;;;;;;;;1.20;99.90;;;;;;2603407;54;19942;31
2022/03/23 03:31:43;;;;;;;;;;;1.30;99.90;;;;;;2603046;54;20759;31
2022/03/23 03:34:34;;;;;;;;;;;1.20;99.90;;;;;;2603501;54;19946;31
2022/03/23 03:37:15;;;;;;;;;;;1.20;99.90;;;;;;2603284;54;19934;31
2022/03/23 03:40:02;;;;;;;;;;;1.20;99.90;;;;;;2603553;54;19934;31
2022/03/23 03:42:40;;;;;;;;;;;1.10;99.90;;;;;;2622527;46;20650;31
2022/03/23 03:45:19;;;;;;;;;;;1.10;99.90;;;;;;2622305;46;19938;31
2022/03/23 03:47:58;;;;;;;;;;;1.00;99.90;;;;;;2621966;46;19942;31
2022/03/23 03:50:39;;;;;;;;;;;1.00;99.90;;;;;;2621807;46;19941;31
2022/03/23 03:53:20;;;;;;;;;;;1.00;99.90;;;;;;2602677;54;20553;31
2022/03/23 03:56:04;;;;;;;;;;;0.90;99.90;;;;;;2773569;31;20541;31
2022/03/23 03:58:42;;;;;;;;;;;0.80;99.90;;;;;;2603386;54;19942;31
2022/03/23 04:01:24;;;;;;;;;;;0.80;99.90;;;;;;2603563;54;20008;31
2022/03/23 04:04:01;;;;;;;;;;;0.80;99.90;;;;;;2603439;54;20798;31
2022/03/23 04:06:36;;;;;;;;;;;0.70;99.90;;;;;;2603340;54;19934;31
2022/03/23 04:09:12;;;;;;;;;;;0.70;99.90;;;;;;2701974;39;21227;31
2022/03/23 04:11:46;;;;;;;;;;;0.60;99.90;;;;;;2603353;54;19935;31
2022/03/23 04:14:22;;;;;;;;;;;0.60;99.90;;;;;;2618543;46;19945;31
2022/03/23 04:16:59;;;;;;;;;;;0.50;99.90;;;;;;2603489;54;19935;31
2022/03/23 04:25:48;;;;;;;;;;;0.50;99.90;;;;;;2603154;54;19934;31
2022/03/23 04:46:26;;;;;;;;;;;0.50;99.90;;;;;;2604100;46;19984;31
2022/03/23 04:49:10;;;;;;;;;;;0.40;99.90;;;;;;2602704;54;20841;31
2022/03/23 04:51:50;;;;;;;;;;;0.40;99.90;;;;;;2602726;54;19941;31
2022/03/23 04:54:25;;;;;;;;;;;0.40;99.90;;;;;;2616960;46;19942;31
2022/03/23 04:57:00;;;;;;;;;;;0.30;99.90;;;;;;2603202;54;19942;31
2022/03/23 04:59:35;;;;;;;;;;;0.20;99.90;;;;;;2621110;46;19934;31
2022/03/23 05:02:10;;;;;;;;;;;0.20;99.90;;;;;;2602490;54;20647;31
2022/03/23 05:04:46;;;;;;;;;;;0.20;99.90;;;;;;2621730;46;19934;31
2022/03/23 05:07:25;;;;;;;;;;;0.10;99.90;;;;;;2603443;54;20778;31
2022/03/23 05:10:02;;;;;;;;;;;0.10;99.90;;;;;;2621865;46;19938;31
2022/03/23 05:12:39;;;;;;;;;;;0.10;99.90;;;;;;2603246;54;19986;31
2022/03/23 05:15:14;;;;;;;;;;;0.10;99.90;;;;;;2603362;54;20743;31
2022/03/23 05:17:48;;;;;;;;;;;0.10;99.90;;;;;;2602586;54;19962;31
2022/03/23 05:20:25;;;;;;;;;;;0.10;99.90;;;;;;2603296;54;19962;31
2022/03/23 05:23:02;;;;;;;;;;;0.10;99.90;;;;;;2622034;46;20687;31
2022/03/23 05:25:39;;;;;;;;;;;0.20;99.90;;;;;;2603223;54;19934;31
2022/03/23 05:28:14;;;;;;;;;;;0.20;99.90;;;;;;2603101;54;19939;31
2022/03/23 05:30:48;;;;;;;;;;;0.20;99.90;;;;;;2603198;54;19994;31
2022/03/23 05:33:25;;;;;;;;;;;0.30;99.90;;;;;;2603173;54;19960;31
2022/03/23 05:36:00;;;;;;;;;;;0.40;99.90;;;;;;2621777;46;19934;31
2022/03/23 05:38:39;;;;;;;;;;;0.50;99.90;;;;;;2603103;54;20736;31
2022/03/23 05:41:13;;;;;;;;;;;0.60;99.90;;;;;;2701226;39;22307;31
2022/03/23 05:43:49;;;;;;;;;;;0.70;99.90;;;;;;2621555;46;20886;31
2022/03/23 05:46:25;;;;;;;;;;;0.80;99.90;;;;;;2621546;46;19934;31
2022/03/23 05:49:03;;;;;;;;;;;1.00;99.90;;;;;;2602466;54;19989;31
2022/03/23 05:51:39;;;;;;;;;;;1.10;99.90;;;;;;2621681;46;20755;31
2022/03/23 05:54:26;;;;;;;;;;;1.30;99.90;;;;;;2603022;54;20543;31
2022/03/23 05:57:11;;;;;;;;;;;1.70;99.90;;;;;;2603433;54;20734;31
2022/03/23 06:05:36;;;;;;;;;;;3.40;99.90;;;;;;2602541;54;19942;31
2022/03/23 06:14:25;;;;;;;;;;;5.50;99.90;;;;;;2602288;54;19942;31
2022/03/23 06:19:58;;;;;;;;;;;6.90;99.90;;;;;;2602518;54;20021;31
2022/03/23 06:22:38;;;;;;;;;;;7.50;99.90;;;;;;2603098;54;19957;31
2022/03/23 06:25:16;;;;;;;;;;;7.90;99.90;;;;;;2603084;54;20779;31
2022/03/23 06:27:53;;;;;;;;;;;8.50;99.30;;;;;;2603045;54;20029;31
2022/03/23 06:30:31;;;;;;;;;;;8.90;98.10;;;;;;2602929;54;20030;31
2022/03/23 06:33:06;;;;;;;;;;;9.30;97.30;;;;;;2621634;46;20759;31
2022/03/23 06:35:44;;;;;;;;;;;9.60;95.90;;;;;;2701430;39;20426;31
2022/03/23 06:38:18;;;;;;;;;;;9.80;95.60;;;;;;2602953;54;19934;31
2022/03/23 06:40:54;;;;;;;;;;;10.00;94.50;;;;;;2602601;54;19989;31
2022/03/23 06:43:33;;;;;;;;;;;10.20;94.00;;;;;;2621515;46;20684;31
2022/03/23 06:46:11;;;;;;;;;;;10.30;93.60;;;;;;2602580;54;20013;31
2022/03/23 06:48:45;;;;;;;;;;;10.40;93.30;;;;;;2621254;46;19961;31
2022/03/23 06:51:23;;;;;;;;;;;10.70;92.90;;;;;;2719971;39;20428;31
2022/03/23 06:53:58;;;;;;;;;;;10.90;92.40;;;;;;2719562;39;20497;31
2022/03/23 06:56:35;;;;;;;;;;;11.10;92.10;;;;;;2602543;54;20795;31
2022/03/23 06:59:11;;;;;;;;;;;11.50;91.90;;;;;;2701097;39;22211;31
2022/03/23 07:01:49;;;;;;;;;;;11.80;91.50;;;;;;2601977;54;19935;31
2022/03/23 07:04:25;;;;;;;;;;;12.10;90.30;;;;;;2602504;54;19946;31
2022/03/23 07:07:03;;;;;;;;;;;12.20;90.70;;;;;;2602718;54;21769;31
2022/03/23 07:09:38;;;;;;;;;;;12.50;90.20;;;;;;2602533;54;20786;31
2022/03/23 07:12:17;;;;;;;;;;;12.70;88.60;;;;;;2621005;47;19934;31
2022/03/23 07:14:52;;;;;;;;;;;12.90;88.50;;;;;;2601737;54;20034;31
2022/03/23 07:17:27;;;;;;;;;;;13.20;88.20;;;;;;2601861;54;19942;31
2022/03/23 07:20:05;;;;;;;;;;;11.20;84.50;;;;;;2621103;47;21044;31
2022/03/23 07:22:42;;;;;;;;;;;13.70;84.70;;;;;;2602479;54;19934;31
2022/03/23 07:25:16;;;;;;;;;;;13.90;84.60;;;;;;2602025;54;20821;31
2022/03/23 07:27:52;;;;;;;;;;;14.20;82.80;;;;;;2602663;54;19934;31
2022/03/23 07:30:27;;;;;;;;;;;14.40;82.70;;;;;;2621426;47;20818;31
2022/03/23 07:33:01;;;;;;;;;;;14.60;82.00;;;;;;2621187;47;19956;31
2022/03/23 07:35:37;;;;;;;;;;;14.80;80.90;;;;;;2621357;47;20663;31
2022/03/23 07:38:14;;;;;;;;;;;15.20;80.40;;;;;;2602937;54;20077;31
2022/03/23 07:40:53;;;;;;;;;;;15.30;78.30;;;;;;2602914;54;20756;31
2022/03/23 07:43:31;;;;;;;;;;;15.60;77.60;;;;;;2602106;54;21298;31
2022/03/23 07:46:06;;;;;;;;;;;15.80;76.90;;;;;;2601950;54;19942;31
2022/03/23 07:48:40;;;;;;;;;;;16.00;77.10;;;;;;2602936;54;19942;31
2022/03/23 07:51:16;;;;;;;;;;;16.30;75.40;;;;;;2621353;47;19935;31
2022/03/23 07:53:51;;;;;;;;;;;16.50;75.00;;;;;;2621201;47;20477;31
2022/03/23 07:56:28;;;;;;;;;;;16.80;74.30;;;;;;2603922;47;19957;31
2022/03/23 07:59:07;;;;;;;;;;;16.90;73.80;;;;;;2602732;54;20753;31
2022/03/23 08:01:41;;;;;;;;;;;17.10;72.80;;;;;;2602740;54;19941;31
2022/03/23 08:04:17;;;;;;;;;;;17.30;72.60;;;;;;2602379;54;20665;31
2022/03/23 08:06:51;;;;;;;;;;;17.50;71.90;;;;;;2601914;54;20673;31
2022/03/23 08:09:28;;;;;;;;;;;17.60;71.90;;;;;;2602489;54;21275;31
2022/03/23 08:12:02;;;;;;;;;;;17.60;69.50;;;;;;2621623;47;20021;31
2022/03/23 08:14:40;;;;;;;;;;;17.70;70.40;;;;;;2606662;39;20263;31
2022/03/23 08:17:18;;;;;;;;;;;17.80;69.90;;;;;;2622311;46;20655;31
2022/03/23 08:20:32;;;;;;;;;;;18.00;69.70;;;;;;2621992;46;19935;31
2022/03/23 08:22:47;;;;;;;;;;;18.30;70.00;;;;;;2699007;31;21094;31
2022/03/23 08:25:28;;;;;;;;;;;18.50;69.50;;;;;;2621852;46;19935;31
2022/03/23 08:28:11;;;;;;;;;;;18.60;68.00;;;;;;2603614;54;20684;31
2022/03/23 08:30:46;;;;;;;;;;;18.80;67.80;;;;;;2622212;46;20009;31
2022/03/23 08:33:25;;;;;;;;;;;18.80;66.90;;;;;;2603578;54;20797;31
2022/03/23 08:36:00;;;;;;;;;;;18.90;65.80;;;;;;2613515;46;19934;31
2022/03/23 08:38:38;;;;;;;;;;;19.10;64.90;;;;;;2602690;54;20505;31
2022/03/23 08:41:13;;;;;;;;;;;19.10;64.80;;;;;;2602802;54;20410;31
2022/03/23 08:43:48;;;;;;;;;;;19.40;65.60;;;;;;2603548;54;20757;31
2022/03/23 08:46:24;;;;;;;;;;;19.50;63.50;;;;;;2603634;54;19960;31
2022/03/23 08:49:01;;;;;;;;;;;19.60;64.30;;;;;;2603414;54;20796;31
2022/03/23 08:51:39;;;;;;;;;;;19.90;65.30;;;;;;2603434;54;19949;31
2022/03/23 08:54:15;;;;;;;;;;;20.10;63.70;;;;;;2603774;54;19935;31
2022/03/23 08:56:52;;;;;;;;;;;20.20;63.20;;;;;;2621761;46;19993;31
2022/03/23 08:59:30;;;;;;;;;;;20.40;63.70;;;;;;2621801;46;20025;31
2022/03/23 09:02:05;;;;;;;;;;;20.60;62.40;;;;;;2603432;54;20820;31
2022/03/23 09:04:40;;;;;;;;;;;20.50;60.80;;;;;;2603332;54;20037;31
2022/03/23 09:07:17;;;;;;;;;;;20.50;60.90;;;;;;2621714;46;19938;31
2022/03/23 09:09:55;;;;;;;;;;;20.50;60.60;;;;;;2622027;46;19935;31
2022/03/23 09:12:36;;;;;;;;;;;20.60;61.10;;;;;;2603086;54;20403;31
2022/03/23 09:15:12;;;;;;;;;;;20.80;60.60;;;;;;2607393;46;20045;31
2022/03/23 09:17:49;;;;;;;;;;;20.90;60.20;;;;;;2621455;46;20010;31
2022/03/23 09:20:25;;;;;;;;;;;21.00;59.20;;;;;;2603283;54;19941;31
2022/03/23 09:23:03;;;;;;;;;;;21.10;60.10;;;;;;2621820;46;20494;31
2022/03/23 09:25:38;;;;;;;;;;;21.30;58.70;;;;;;2602618;54;20763;31
2022/03/23 09:28:18;;;;;;;;;;;21.40;57.20;;;;;;2603292;54;19935;31
2022/03/23 09:30:53;;;;;;;;;;;21.50;58.60;;;;;;2603275;54;20761;31
2022/03/23 09:33:31;;;;;;;;;;;21.60;57.90;;;;;;2621924;46;20661;31
2022/03/23 09:37:47;;;;;;;;;;;21.60;57.30;;;;;;2621565;46;19943;31
2022/03/23 09:39:06;;;;;;;;;;;21.80;57.50;;;;;;2621564;46;20694;31
2022/03/23 09:41:43;;;;;;;;;;;21.90;56.70;;;;;;2603407;54;20770;31
2022/03/23 09:44:24;;;;;;;;;;;21.90;56.40;;;;;;2603123;54;20856;31
2022/03/23 09:46:59;;;;;;;;;;;21.90;56.00;;;;;;2603096;54;19993;31
2022/03/23 09:49:39;;;;;;;;;;;22.10;56.40;;;;;;2603151;54;19934;31
2022/03/23 09:52:15;;;;;;;;;;;22.20;54.80;;;;;;2602371;54;20680;31
2022/03/23 09:54:52;;;;;;;;;;;22.00;54.80;;;;;;2602581;54;19941;31
2022/03/23 09:57:27;;;;;;;;;;;22.20;55.20;;;;;;2621675;46;20876;31
2022/03/23 10:00:08;;;;;;;;;;;22.20;55.30;;;;;;2603363;54;19960;31
2022/03/23 10:03:24;;;;;;;;;;;22.40;54.90;;;;;;2621713;46;19942;31
2022/03/23 10:06:25;;;;;;;;;;;22.30;53.80;;;;;;2621660;46;19941;31
2022/03/23 10:09:11;;;;;;;;;;;22.40;53.90;;;;;;2603091;54;19934;31
2022/03/23 10:12:01;;;;;;;;;;;22.50;54.00;;;;;;2603255;54;19993;31
2022/03/23 10:14:38;;;;;;;;;;;22.60;53.80;;;;;;2603202;54;20779;31
2022/03/23 10:17:30;;;;;;;;;;;22.60;53.20;;;;;;2602405;54;19942;31
2022/03/23 10:20:08;;;;;;;;;;;22.60;53.60;;;;;;2621744;46;20740;31
2022/03/23 10:22:46;;;;;;;;;;;22.70;52.80;;;;;;2602654;54;20781;31
2022/03/23 10:25:23;;;;;;;;;;;22.60;51.30;;;;;;2602602;54;20846;31
2022/03/23 10:27:57;;;;;;;;;;;22.60;51.80;;;;;;2603029;54;19934;31
2022/03/23 10:30:37;;;;;;;;;;;22.60;52.10;;;;;;2602903;54;19946;31
2022/03/23 10:33:22;;;;;;;;;;;22.70;52.10;;;;;;2621642;46;19943;31
2022/03/23 10:36:00;;;;;;;;;;;22.60;50.60;;;;;;2603023;54;20511;31
2022/03/23 10:38:38;;;;;;;;;;;22.60;51.20;;;;;;2621576;46;20690;31
2022/03/23 10:41:15;;;;;;;;;;;22.60;52.30;;;;;;2603326;54;19941;31
2022/03/23 10:43:51;;;;;;;;;;;22.70;51.60;;;;;;2603276;54;20775;31
2022/03/23 10:46:25;;;;;;;;;;;22.80;51.00;;;;;;2603289;54;19938;31
2022/03/23 10:49:06;;;;;;;;;;;22.80;49.80;;;;;;2621517;46;20780;31
2022/03/23 10:51:45;;;;;;;;;;;22.80;49.70;;;;;;2602942;54;20489;31
2022/03/23 10:54:23;;;;;;;;;;;22.70;49.40;;;;;;2602942;54;20501;31
2022/03/23 10:56:58;;;;;;;;;;;22.70;49.10;;;;;;2621237;46;19946;31
2022/03/23 10:59:42;;;;;;;;;;;22.60;48.90;;;;;;2621365;46;19946;31
2022/03/23 11:02:19;;;;;;;;;;;22.50;48.00;;;;;;2603020;54;20784;31
2022/03/23 11:04:56;;;;;;;;;;;22.40;48.30;;;;;;2602856;54;19941;31
2022/03/23 11:07:35;;;;;;;;;;;22.40;49.90;;;;;;2602911;54;19942;31
2022/03/23 11:15:51;;;;;;;;;;;22.50;47.50;;;;;;2602872;54;20501;31
2022/03/23 11:18:26;;;;;;;;;;;22.40;47.80;;;;;;2603063;54;19934;31
2022/03/23 11:21:02;;;;;;;;;;;22.50;48.20;;;;;;2602959;54;20889;31
2022/03/23 11:23:41;;;;;;;;;;;22.60;48.20;;;;;;2719818;39;20443;31
2022/03/23 11:26:15;;;;;;;;;;;22.60;47.60;;;;;;2621618;47;19989;31
2022/03/23 11:28:50;;;;;;;;;;;22.50;48.80;;;;;;2603117;54;19934;31
2022/03/23 11:31:24;;;;;;;;;;;22.50;48.20;;;;;;2621383;47;19935;31
2022/03/23 11:34:03;;;;;;;;;;;22.50;46.90;;;;;;2602661;54;19941;31
2022/03/23 11:36:37;;;;;;;;;;;22.50;47.20;;;;;;2621455;47;20409;31
2022/03/23 11:39:16;;;;;;;;;;;22.50;47.60;;;;;;2602141;54;20811;31
2022/03/23 11:41:51;;;;;;;;;;;22.50;46.80;;;;;;2603023;54;20763;31
2022/03/23 11:44:26;;;;;;;;;;;22.60;46.50;;;;;;2621172;47;20699;31
2022/03/23 11:47:05;;;;;;;;;;;22.60;48.40;;;;;;2621183;47;19935;31
2022/03/23 11:49:43;;;;;;;;;;;22.70;47.20;;;;;;2603127;54;19942;31
2022/03/23 11:52:26;;;;;;;;;;;22.60;45.80;;;;;;2772828;31;21450;31
2022/03/23 11:58:21;;;;;;;;;;;22.60;48.40;;;;;;2622380;46;20655;31
2022/03/23 12:00:56;;;;;;;;;;;22.60;47.00;;;;;;2603226;54;21455;31
2022/03/23 12:03:45;;;;;;;;;;;22.60;47.90;;;;;;2603567;54;20825;31
2022/03/23 12:06:23;;;;;;;;;;;22.60;46.80;;;;;;2603522;54;19938;31
2022/03/23 12:08:58;;;;;;;;;;;22.60;46.60;;;;;;2603657;54;19939;31
2022/03/23 12:11:49;;;;;;;;;;;22.60;46.20;;;;;;2603662;54;19947;31
2022/03/23 12:14:27;;;;;;;;;;;22.60;46.70;;;;;;2622066;46;19935;31
2022/03/23 12:17:04;;;;;;;;;;;22.60;46.70;;;;;;2621939;46;19934;31
2022/03/23 12:20:00;;;;;;;;;;;22.70;47.30;;;;;;2603312;54;19968;31
2022/03/23 12:22:40;;;;;;;;;;;22.60;47.40;;;;;;2603280;54;20802;31
2022/03/23 12:25:16;;;;;;;;;;;22.60;47.40;;;;;;2603486;54;20780;31
2022/03/23 12:27:53;;;;;;;;;;;22.50;46.20;;;;;;2603576;54;20532;31
2022/03/23 12:30:38;;;;;;;;;;;22.50;46.10;;;;;;2603593;54;20698;31
2022/03/23 12:33:15;;;;;;;;;;;22.50;47.30;;;;;;2603363;54;20650;31
2022/03/23 12:35:50;;;;;;;;;;;22.50;46.00;;;;;;2622062;46;19986;31
2022/03/23 12:38:27;;;;;;;;;;;22.40;46.90;;;;;;2621310;46;20024;31
2022/03/23 12:41:06;;;;;;;;;;;22.50;47.40;;;;;;2602765;54;20788;31
2022/03/23 12:43:42;;;;;;;;;;;22.40;46.60;;;;;;2602606;54;19957;31
2022/03/23 12:46:26;;;;;;;;;;;22.40;45.70;;;;;;2602596;54;19949;31
2022/03/23 12:59:58;;;;;;;;;;;22.00;47.60;;;;;;2603389;54;19935;31
2022/03/23 13:02:39;;;;;;;;;;;21.90;47.00;;;;;;2621634;46;19938;31
2022/03/23 13:05:14;;;;;;;;;;;21.90;48.10;;;;;;2603382;54;19939;31
2022/03/23 13:07:51;;;;;;;;;;;22.00;47.50;;;;;;2603408;54;19935;31
2022/03/23 13:10:29;;;;;;;;;;;22.00;47.70;;;;;;2622054;46;20635;31
2022/03/23 13:13:08;;;;;;;;;;;22.00;46.80;;;;;;2621664;46;19997;31
2022/03/23 13:15:43;;;;;;;;;;;22.00;47.50;;;;;;2603508;54;21309;31
2022/03/23 13:18:22;;;;;;;;;;;22.00;47.40;;;;;;2603220;54;21266;31
2022/03/23 13:20:56;;;;;;;;;;;22.00;49.20;;;;;;2621589;46;22363;31
2022/03/23 13:23:43;;;;;;;;;;;22.00;46.60;;;;;;2621527;46;19935;31
2022/03/23 13:26:20;;;;;;;;;;;22.00;47.90;;;;;;2612204;46;20801;31
2022/03/23 13:28:53;;;;;;;;;;;22.00;48.30;;;;;;2621644;46;22240;31
2022/03/23 13:31:30;;;;;;;;;;;22.00;47.80;;;;;;2603232;54;20751;31
2022/03/23 13:34:14;;;;;;;;;;;21.90;47.80;;;;;;2603308;54;19941;31
2022/03/23 13:36:53;;;;;;;;;;;21.90;47.00;;;;;;2603390;54;19938;31
2022/03/23 13:39:28;;;;;;;;;;;21.90;46.50;;;;;;2603382;54;19989;31
2022/03/23 13:45:00;;;;;;;;;;;21.90;46.80;;;;;;2603298;54;20795;31
2022/03/23 13:47:37;;;;;;;;;;;21.80;46.40;;;;;;2621810;46;20346;31
2022/03/23 13:50:15;;;;;;;;;;;21.80;46.70;;;;;;2602556;54;20664;31
2022/03/23 13:52:56;;;;;;;;;;;21.80;47.70;;;;;;2603208;54;20717;31
2022/03/23 13:55:30;;;;;;;;;;;21.80;47.20;;;;;;2621593;46;19935;31
2022/03/23 13:58:07;;;;;;;;;;;21.80;46.60;;;;;;2621617;46;20772;31
2022/03/23 14:00:42;;;;;;;;;;;21.70;45.90;;;;;;2621376;46;20500;31
2022/03/23 14:03:18;;;;;;;;;;;21.70;46.40;;;;;;2603133;54;20024;31
2022/03/23 14:06:05;;;;;;;;;;;21.70;46.30;;;;;;2603061;54;20763;31
2022/03/23 14:08:52;;;;;;;;;;;21.70;46.20;;;;;;2603029;54;20795;31
2022/03/23 14:14:19;;;;;;;;;;;21.70;45.00;;;;;;2621563;46;19941;31
2022/03/23 14:17:02;;;;;;;;;;;21.60;45.10;;;;;;2720173;39;20397;31
2022/03/23 14:19:38;;;;;;;;;;;21.60;44.80;;;;;;2621747;46;20811;31
2022/03/23 14:22:16;;;;;;;;;;;21.60;46.10;;;;;;2603264;54;20536;31
2022/03/23 14:24:54;;;;;;;;;;;21.60;44.70;;;;;;2621661;46;20816;31
2022/03/23 14:27:29;;;;;;;;;;;21.60;45.00;;;;;;2621319;46;19934;31
2022/03/23 14:30:11;;;;;;;;;;;21.60;45.10;;;;;;2621627;46;19989;31
2022/03/23 14:32:47;;;;;;;;;;;21.60;45.70;;;;;;2603009;54;20725;31
2022/03/23 14:35:22;;;;;;;;;;;21.60;45.70;;;;;;2602245;54;19942;31
2022/03/23 14:37:59;;;;;;;;;;;21.60;45.60;;;;;;2621723;46;20780;31
2022/03/23 14:40:37;;;;;;;;;;;21.60;44.60;;;;;;2621195;46;19935;31
2022/03/23 14:43:27;;;;;;;;;;;21.50;45.80;;;;;;2621570;46;20010;31
2022/03/23 14:48:35;;;;;;;;;;;21.40;45.30;;;;;;2603112;54;19934;31
2022/03/23 14:51:11;;;;;;;;;;;21.40;46.10;;;;;;2602979;54;20655;31
2022/03/23 14:53:48;;;;;;;;;;;21.40;46.40;;;;;;2620609;46;19934;31
2022/03/23 14:56:25;;;;;;;;;;;21.40;45.60;;;;;;2621704;46;20785;31
2022/03/23 14:59:00;;;;;;;;;;;21.30;45.00;;;;;;2621323;46;19935;31
2022/03/23 15:01:39;;;;;;;;;;;21.30;45.30;;;;;;2603110;54;20802;31
2022/03/23 15:04:22;;;;;;;;;;;21.20;45.40;;;;;;2621332;46;19935;31
2022/03/23 15:15:27;;;;;;;;;;;21.10;46.10;;;;;;2621479;47;19941;31
2022/03/23 15:18:05;;;;;;;;;;;21.00;45.40;;;;;;2602866;54;19934;31
2022/03/23 15:20:41;;;;;;;;;;;21.00;46.00;;;;;;2603007;54;19962;31
2022/03/23 15:23:18;;;;;;;;;;;21.00;46.10;;;;;;2622271;46;20009;31
2022/03/23 15:25:53;;;;;;;;;;;20.90;45.60;;;;;;2622049;46;19934;31
2022/03/23 15:28:40;;;;;;;;;;;20.90;45.80;;;;;;2603896;54;20013;31
2022/03/23 15:31:15;;;;;;;;;;;20.90;46.10;;;;;;2720548;39;20429;31
2022/03/23 15:33:50;;;;;;;;;;;20.80;44.80;;;;;;2622166;46;20786;31
2022/03/23 15:36:27;;;;;;;;;;;20.70;45.90;;;;;;2603568;54;19939;31
2022/03/23 15:39:05;;;;;;;;;;;20.70;45.80;;;;;;2604051;54;19949;31
2022/03/23 15:41:41;;;;;;;;;;;20.60;46.20;;;;;;2622007;46;20041;31
2022/03/23 15:44:18;;;;;;;;;;;20.50;46.50;;;;;;2622235;46;19993;31
2022/03/23 15:46:56;;;;;;;;;;;20.40;47.30;;;;;;2620392;46;19948;31
2022/03/23 15:49:36;;;;;;;;;;;20.30;46.40;;;;;;2603658;54;19960;31
2022/03/23 15:52:14;;;;;;;;;;;20.30;47.00;;;;;;2603527;54;20647;31
2022/03/23 15:54:50;;;;;;;;;;;20.20;47.60;;;;;;2622270;46;19989;31
2022/03/23 15:57:27;;;;;;;;;;;20.10;47.80;;;;;;2603511;54;19935;31
2022/03/23 16:00:07;;;;;;;;;;;20.10;47.30;;;;;;2602879;54;19949;31
2022/03/23 16:02:44;;;;;;;;;;;20.00;47.10;;;;;;2622202;46;20770;31
2022/03/23 16:05:23;;;;;;;;;;;20.00;47.20;;;;;;2603653;54;20020;31
2022/03/23 16:10:33;;;;;;;;;;;19.90;47.70;;;;;;2603827;54;20767;31
2022/03/23 16:13:09;;;;;;;;;;;19.70;47.00;;;;;;2603556;54;20728;31
2022/03/23 16:15:50;;;;;;;;;;;19.70;47.50;;;;;;2622120;46;19966;31
2022/03/23 16:18:28;;;;;;;;;;;19.60;47.70;;;;;;2603504;54;19934;31
2022/03/23 16:21:07;;;;;;;;;;;19.50;48.50;;;;;;2603435;54;19943;31
2022/03/23 16:23:44;;;;;;;;;;;19.50;48.10;;;;;;2622153;46;19994;31
2022/03/23 16:26:20;;;;;;;;;;;19.40;48.10;;;;;;2603622;54;19938;31
2022/03/23 16:29:01;;;;;;;;;;;19.30;48.80;;;;;;2603536;54;20824;31
2022/03/23 16:31:37;;;;;;;;;;;19.30;48.70;;;;;;2603369;54;20770;31
2022/03/23 16:34:12;;;;;;;;;;;19.20;48.50;;;;;;2603074;54;20487;31
2022/03/23 16:36:50;;;;;;;;;;;19.10;49.10;;;;;;2621956;46;20008;31
2022/03/23 16:39:26;;;;;;;;;;;19.10;48.40;;;;;;2603482;54;20032;31
2022/03/23 16:42:04;;;;;;;;;;;19.00;48.80;;;;;;2603409;54;20691;31
2022/03/23 16:44:38;;;;;;;;;;;18.90;48.80;;;;;;2621810;46;19934;31
2022/03/23 16:47:15;;;;;;;;;;;18.80;48.30;;;;;;2622160;46;19967;31
2022/03/23 16:49:50;;;;;;;;;;;18.70;48.90;;;;;;2603752;54;20756;31
2022/03/23 16:52:28;;;;;;;;;;;18.60;48.90;;;;;;2603486;54;22248;31
2022/03/23 16:55:02;;;;;;;;;;;18.50;49.30;;;;;;2603421;54;19939;31
2022/03/23 16:57:39;;;;;;;;;;;18.40;50.40;;;;;;2602819;54;19949;31
2022/03/23 17:00:16;;;;;;;;;;;18.20;49.80;;;;;;2603149;54;20489;31
2022/03/23 17:14:07;;;;;;;;;;;17.70;54.80;;;;;;2603419;54;20741;31
2022/03/23 17:16:45;;;;;;;;;;;17.80;54.20;;;;;;2621762;46;20017;31
2022/03/23 17:19:26;;;;;;;;;;;17.70;50.80;;;;;;2603208;54;19935;31
2022/03/23 17:22:01;;;;;;;;;;;17.50;50.70;;;;;;2621899;46;20665;31
2022/03/23 17:24:36;;;;;;;;;;;17.40;50.60;;;;;;2720066;39;22239;31
2022/03/23 17:27:11;;;;;;;;;;;17.30;51.00;;;;;;2603331;54;20650;31
2022/03/23 17:29:45;;;;;;;;;;;17.30;50.80;;;;;;2622071;46;20767;31
2022/03/23 17:32:20;;;;;;;;;;;17.20;50.90;;;;;;2603198;54;20473;31
2022/03/23 17:34:57;;;;;;;;;;;17.10;50.90;;;;;;2603408;54;19953;31
2022/03/23 17:37:32;;;;;;;;;;;17.10;56.30;;;;;;2603308;54;19939;31
2022/03/23 17:43:07;;;;;;;;;;;17.10;55.80;;;;;;2603184;54;20809;31
2022/03/23 17:45:42;;;;;;;;;;;17.00;54.10;;;;;;2603451;54;19989;31
2022/03/23 17:48:17;;;;;;;;;;;17.00;52.80;;;;;;2621972;46;19938;31
2022/03/23 17:50:58;;;;;;;;;;;16.90;52.20;;;;;;2621801;46;19989;31
2022/03/23 17:53:32;;;;;;;;;;;16.80;52.40;;;;;;2603264;54;19940;31
2022/03/23 17:56:09;;;;;;;;;;;16.70;53.50;;;;;;2621813;46;20006;31
2022/03/23 17:58:47;;;;;;;;;;;16.60;55.70;;;;;;2603253;54;20734;31
2022/03/23 18:01:28;;;;;;;;;;;16.50;54.10;;;;;;2621332;46;20508;31
2022/03/23 18:04:05;;;;;;;;;;;16.40;54.50;;;;;;2603201;54;20031;31
2022/03/23 18:06:39;;;;;;;;;;;16.20;53.90;;;;;;2603405;54;19941;31
2022/03/23 18:09:15;;;;;;;;;;;16.10;53.50;;;;;;2603205;54;20746;31
2022/03/23 18:17:19;;;;;;;;;;;15.80;54.00;;;;;;2603384;54;20707;31
2022/03/23 18:22:42;;;;;;;;;;;15.60;54.40;;;;;;2602453;54;20769;31
2022/03/23 18:25:20;;;;;;;;;;;15.50;54.80;;;;;;2603093;54;20792;31
2022/03/23 18:27:55;;;;;;;;;;;15.30;55.30;;;;;;2602877;54;20767;31
2022/03/23 18:33:46;;;;;;;;;;;15.00;56.00;;;;;;2612031;54;19934;31
2022/03/23 18:45:16;;;;;;;;;;;14.30;59.50;;;;;;2602260;54;20466;31
2022/03/23 18:47:55;;;;;;;;;;;14.10;60.00;;;;;;2621413;46;20004;31
2022/03/23 18:50:29;;;;;;;;;;;13.90;58.60;;;;;;2719942;39;20293;31
2022/03/23 18:53:04;;;;;;;;;;;13.80;58.60;;;;;;2602980;54;20740;31
2022/03/23 18:55:41;;;;;;;;;;;13.70;57.80;;;;;;2701187;39;20405;31
2022/03/23 19:27:24;;;;;;;;;;;12.40;61.80;;;;;;2701404;39;22257;31
2022/03/23 19:53:07;;;;;;;;;;;11.50;62.50;;;;;;2621024;47;19938;31
2022/03/23 19:55:48;;;;;;;;;;;11.50;62.40;;;;;;2602449;54;19941;31
2022/03/23 19:58:23;;;;;;;;;;;11.40;62.20;;;;;;2620864;47;20735;31
2022/03/23 20:01:04;;;;;;;;;;;11.40;62.40;;;;;;2602469;54;19934;31
2022/03/23 20:03:42;;;;;;;;;;;11.40;63.30;;;;;;2602530;54;20759;31
2022/03/23 20:06:18;;;;;;;;;;;11.30;64.40;;;;;;2602495;54;19941;31
2022/03/23 20:08:53;;;;;;;;;;;11.20;65.00;;;;;;2602845;54;20706;31
2022/03/23 20:11:43;;;;;;;;;;;11.10;64.50;;;;;;2621652;46;19934;31
2022/03/23 20:14:20;;;;;;;;;;;11.00;65.40;;;;;;2701632;39;20394;31
2022/03/23 20:16:57;;;;;;;;;;;10.90;64.50;;;;;;2621862;46;20334;31